createdAt,value
2018-10-09T00:01:31.572Z,14.40
2018-10-09T00:04:00.470Z,17.27
2018-10-09T00:06:29.675Z,18.87
2018-10-09T00:08:58.748Z,17.03
2018-10-09T00:11:27.493Z,17.07
2018-10-09T00:13:56.333Z,15.13
2018-10-09T00:16:25.240Z,20.47
2018-10-09T00:18:53.955Z,15.33
2018-10-09T00:21:22.860Z,16.10
2018-10-09T00:23:51.598Z,16.97
2018-10-09T00:26:20.304Z,22.47
2018-10-09T00:28:49.230Z,18.27
2018-10-09T00:31:18.292Z,16.90
2018-10-09T00:33:47.181Z,21.43
2018-10-09T00:36:15.944Z,23.30
2018-10-09T00:38:44.914Z,18.30
2018-10-09T00:41:14.064Z,15.33
2018-10-09T00:43:42.778Z,18.13
2018-10-09T00:46:11.533Z,17.60
2018-10-09T00:48:40.350Z,16.53
2018-10-09T00:51:09.157Z,19.67
2018-10-09T00:53:38.659Z,15.17
2018-10-09T00:56:07.629Z,13.67
2018-10-09T00:58:36.343Z,22.00
2018-10-09T01:01:05.092Z,18.33
2018-10-09T01:03:33.807Z,16.13
2018-10-09T01:06:02.473Z,15.77
2018-10-09T01:08:31.285Z,16.07
2018-10-09T01:11:00.353Z,17.00
2018-10-09T01:13:29.154Z,16.17
2018-10-09T01:15:58.026Z,14.37
2018-10-09T01:18:27.022Z,15.87
2018-10-09T01:20:55.853Z,16.60
2018-10-09T01:23:24.542Z,14.97
2018-10-09T01:25:53.281Z,18.77
2018-10-09T01:28:22.322Z,13.43
2018-10-09T01:30:51.107Z,19.37
2018-10-09T01:33:20.054Z,20.23
2018-10-09T01:35:48.851Z,14.97
2018-10-09T01:38:17.782Z,16.33
2018-10-09T01:40:46.569Z,19.43
2018-10-09T01:43:15.400Z,16.53
2018-10-09T01:45:44.134Z,18.03
2018-10-09T01:48:13.107Z,19.20
2018-10-09T01:50:41.974Z,13.70
2018-10-09T01:53:10.617Z,16.53
2018-10-09T01:55:39.228Z,22.57
2018-10-09T01:58:08.132Z,16.83
2018-10-09T02:00:36.738Z,18.10
2018-10-09T02:03:05.455Z,20.40
2018-10-09T02:05:34.564Z,15.77
2018-10-09T02:08:03.326Z,13.97
2018-10-09T02:10:32.311Z,14.27
2018-10-09T02:13:00.927Z,13.60
2018-10-09T02:15:29.721Z,17.33
2018-10-09T02:17:58.938Z,16.53
2018-10-09T02:20:27.775Z,18.73
2018-10-09T02:22:56.451Z,15.93
2018-10-09T02:25:25.170Z,19.00
2018-10-09T02:27:53.912Z,17.37
2018-10-09T02:30:22.854Z,16.23
2018-10-09T02:32:51.936Z,16.60
2018-10-09T02:35:20.809Z,15.70
2018-10-09T02:37:49.852Z,18.13
2018-10-09T02:40:19.018Z,14.20
2018-10-09T02:42:47.897Z,18.57
2018-10-09T02:45:16.752Z,18.87
2018-10-09T02:47:45.481Z,16.50
2018-10-09T02:50:14.515Z,16.20
2018-10-09T02:52:43.210Z,15.77
2018-10-09T02:55:11.945Z,23.80
2018-10-09T02:57:40.924Z,16.13
2018-10-09T03:00:10.235Z,19.83
2018-10-09T03:02:39.126Z,18.33
2018-10-09T03:05:08.479Z,17.27
2018-10-09T03:07:37.562Z,19.43
2018-10-09T03:10:06.856Z,15.00
2018-10-09T03:12:36.207Z,21.27
2018-10-09T03:15:06.080Z,17.00
2018-10-09T03:17:35.371Z,17.50
2018-10-09T03:20:04.319Z,18.07
2018-10-09T03:22:32.958Z,23.50
2018-10-09T03:25:01.812Z,17.77
2018-10-09T03:27:30.394Z,16.60
2018-10-09T03:29:58.965Z,15.90
2018-10-09T03:32:28.193Z,23.00
2018-10-09T03:34:57.082Z,17.53
2018-10-09T03:37:25.973Z,25.63
2018-10-09T03:39:54.991Z,15.00
2018-10-09T03:42:23.699Z,19.77
2018-10-09T03:44:52.783Z,19.70
2018-10-09T03:47:22.165Z,19.13
2018-10-09T03:49:50.948Z,16.60
2018-10-09T03:52:19.811Z,18.23
2018-10-09T03:54:48.517Z,22.77
2018-10-09T03:57:17.233Z,20.10
2018-10-09T03:59:46.041Z,17.30
2018-10-09T04:02:15.103Z,25.23
2018-10-09T04:04:43.997Z,26.83
2018-10-09T04:07:12.878Z,21.77
2018-10-09T04:09:42.150Z,23.60
2018-10-09T04:12:10.862Z,26.27
2018-10-09T04:14:39.773Z,21.03
2018-10-09T04:17:08.906Z,23.97
2018-10-09T04:19:37.698Z,35.00
2018-10-09T04:22:07.159Z,31.87
2018-10-09T04:24:36.026Z,21.63
2018-10-09T04:27:04.713Z,31.90
2018-10-09T04:29:33.635Z,25.10
2018-10-09T04:32:02.788Z,32.53
2018-10-09T04:34:31.677Z,29.70
2018-10-09T04:37:00.778Z,31.07
2018-10-09T04:39:29.827Z,40.07
2018-10-09T04:41:58.948Z,34.67
2018-10-09T04:44:27.822Z,40.10
2018-10-09T04:46:57.404Z,29.47
2018-10-09T04:49:26.178Z,36.43
2018-10-09T04:51:55.019Z,32.00
2018-10-09T04:54:24.016Z,33.23
2018-10-09T04:56:52.747Z,32.37
2018-10-09T04:59:21.856Z,37.77
2018-10-09T05:01:51.016Z,26.77
2018-10-09T05:04:20.248Z,31.90
2018-10-09T05:06:49.367Z,34.23
2018-10-09T05:09:18.360Z,28.20
2018-10-09T05:11:47.275Z,26.67
2018-10-09T05:14:16.408Z,35.97
2018-10-09T05:16:45.922Z,31.60
2018-10-09T05:19:15.008Z,33.63
2018-10-09T05:21:43.692Z,36.77
2018-10-09T05:24:12.410Z,42.97
2018-10-09T05:26:41.374Z,34.10
2018-10-09T05:29:10.115Z,27.77
2018-10-09T05:31:39.206Z,34.80
2018-10-09T05:34:08.055Z,40.00
2018-10-09T05:36:36.708Z,31.63
2018-10-09T05:39:07.286Z,46.43
2018-10-09T05:41:36.440Z,62.57
2018-10-09T05:44:05.287Z,46.83
2018-10-09T05:46:34.526Z,50.83
2018-10-09T05:49:03.334Z,61.90
2018-10-09T05:51:31.963Z,69.90
2018-10-09T05:54:00.587Z,36.83
2018-10-09T05:56:29.774Z,48.03
2018-10-09T05:58:58.834Z,33.33
2018-10-09T06:01:27.859Z,52.60
2018-10-09T06:03:56.956Z,38.40
2018-10-09T06:06:25.554Z,38.87
2018-10-09T06:08:54.710Z,50.63
2018-10-09T06:11:23.822Z,59.33
2018-10-09T06:13:52.700Z,65.20
2018-10-09T06:16:21.386Z,57.97
2018-10-09T06:18:50.625Z,63.97
2018-10-09T06:21:19.381Z,56.87
2018-10-09T06:23:48.118Z,57.70
2018-10-09T06:26:16.727Z,48.50
2018-10-09T06:28:46.049Z,56.47
2018-10-09T06:31:14.982Z,55.03
2018-10-09T06:33:44.111Z,53.63
2018-10-09T06:36:13.230Z,53.53
2018-10-09T06:38:42.087Z,57.93
2018-10-09T06:41:10.995Z,52.27
2018-10-09T06:43:39.933Z,36.00
2018-10-09T06:46:09.222Z,41.73
2018-10-09T06:48:38.198Z,26.03
2018-10-09T06:51:06.990Z,26.40
2018-10-09T06:53:36.213Z,22.67
2018-10-09T06:56:04.751Z,16.80
2018-10-09T06:58:33.435Z,15.40
2018-10-09T07:01:02.199Z,25.50
2018-10-09T07:03:30.941Z,16.47
2018-10-09T07:05:59.738Z,40.43
2018-10-09T07:08:28.747Z,20.40
2018-10-09T07:10:58.144Z,15.87
2018-10-09T07:13:27.420Z,18.43
2018-10-09T07:15:56.732Z,23.87
2018-10-09T07:18:25.352Z,21.03
2018-10-09T07:20:54.075Z,16.20
2018-10-09T07:23:22.936Z,15.60
2018-10-09T07:25:52.183Z,18.33
2018-10-09T07:28:21.596Z,13.13
2018-10-09T07:30:50.658Z,20.77
2018-10-09T07:33:19.314Z,13.43
2018-10-09T07:35:47.987Z,18.03
2018-10-09T07:38:16.936Z,20.93
2018-10-09T07:40:45.614Z,20.07
2018-10-09T07:43:14.338Z,15.90
2018-10-09T07:45:42.977Z,12.17
2018-10-09T07:48:11.836Z,7.60
2018-10-09T07:50:40.531Z,14.17
2018-10-09T07:53:09.539Z,8.77
2018-10-09T07:55:38.478Z,7.57
2018-10-09T07:58:07.757Z,10.20
2018-10-09T08:00:36.894Z,6.93
2018-10-09T08:03:05.765Z,8.13
2018-10-09T08:05:34.562Z,8.53
2018-10-09T08:08:04.680Z,6.63
2018-10-09T08:10:33.544Z,6.20
2018-10-09T08:13:02.364Z,8.43
2018-10-09T08:15:31.376Z,5.70
2018-10-09T08:18:00.335Z,11.17
2018-10-09T08:20:29.064Z,9.77
2018-10-09T08:22:58.091Z,10.97
2018-10-09T08:25:26.811Z,5.20
2018-10-09T08:27:55.652Z,10.50
2018-10-09T08:30:24.730Z,9.93
2018-10-09T08:32:53.501Z,14.67
2018-10-09T08:35:22.503Z,8.63
2018-10-09T08:37:51.827Z,10.30
2018-10-09T08:40:21.020Z,6.43
2018-10-09T08:42:49.993Z,15.27
2018-10-09T08:45:18.988Z,14.60
2018-10-09T08:47:47.777Z,9.53
2018-10-09T08:50:16.768Z,13.07
2018-10-09T08:52:45.668Z,7.40
2018-10-09T08:55:14.414Z,7.53
2018-10-09T08:57:43.278Z,3.77
2018-10-09T09:00:12.718Z,10.80
2018-10-09T09:02:41.328Z,7.43
2018-10-09T09:05:10.519Z,8.67
2018-10-09T09:07:39.451Z,6.43
2018-10-09T09:10:08.414Z,8.60
2018-10-09T09:12:37.399Z,7.70
2018-10-09T09:15:06.783Z,13.77
2018-10-09T09:17:35.834Z,3.80
2018-10-09T09:20:04.931Z,9.60
2018-10-09T09:22:33.794Z,5.27
2018-10-09T09:25:02.535Z,4.10
2018-10-09T09:27:31.810Z,10.57
2018-10-09T09:30:00.723Z,6.90
2018-10-09T09:32:29.620Z,8.10
2018-10-09T09:34:58.443Z,6.63
2018-10-09T09:37:27.372Z,10.00
2018-10-09T09:39:56.310Z,10.23
2018-10-09T09:42:25.343Z,10.70
2018-10-09T09:44:54.451Z,7.23
2018-10-09T09:47:23.822Z,8.40
2018-10-09T09:49:52.625Z,8.60
2018-10-09T09:52:21.844Z,6.07
2018-10-09T09:54:50.607Z,10.17
2018-10-09T09:57:19.717Z,10.53
2018-10-09T09:59:48.828Z,6.73
2018-10-09T10:02:17.710Z,5.70
2018-10-09T10:04:46.859Z,10.45
2018-10-09T10:07:16.055Z,9.38
2018-10-09T10:09:44.848Z,9.00
2018-10-09T10:12:13.625Z,7.35
2018-10-09T10:14:42.481Z,10.48
2018-10-09T10:17:11.360Z,16.42
2018-10-09T10:19:39.994Z,8.78
2018-10-09T10:22:09.450Z,9.10
2018-10-09T10:24:38.115Z,8.58
2018-10-09T10:27:07.222Z,9.85
2018-10-09T10:29:36.225Z,9.48
2018-10-09T10:32:04.975Z,18.35
2018-10-09T10:34:34.021Z,12.05
2018-10-09T10:37:05.923Z,13.68
2018-10-09T10:39:34.871Z,4.65
2018-10-09T10:42:04.318Z,6.97
2018-10-09T10:44:33.042Z,11.15
2018-10-09T10:47:01.895Z,12.55
2018-10-09T10:49:30.907Z,5.65
2018-10-09T10:51:59.603Z,7.55
2018-10-09T10:54:28.365Z,14.18
2018-10-09T10:56:57.141Z,6.00
2018-10-09T10:59:25.853Z,6.28
2018-10-09T11:01:54.569Z,8.35
2018-10-09T11:04:23.550Z,3.25
2018-10-09T11:06:52.458Z,5.50
2018-10-09T11:09:21.456Z,7.03
2018-10-09T11:11:50.857Z,9.63
2018-10-09T11:14:19.864Z,7.08
2018-10-09T11:16:48.853Z,7.85
2018-10-09T11:19:17.645Z,5.15
2018-10-09T11:21:46.424Z,9.57
2018-10-09T11:24:15.120Z,7.22
2018-10-09T11:26:44.414Z,5.75
2018-10-09T11:29:13.409Z,3.17
2018-10-09T11:31:42.198Z,12.47
2018-10-09T11:34:11.792Z,3.90
2018-10-09T11:36:40.667Z,6.12
2018-10-09T11:39:10.385Z,4.50
2018-10-09T11:41:39.241Z,8.75
2018-10-09T11:44:08.397Z,6.37
2018-10-09T11:46:38.127Z,4.15
2018-10-09T11:49:07.443Z,6.58
2018-10-09T11:51:36.183Z,6.43
2018-10-09T11:54:05.134Z,12.05
2018-10-09T11:56:33.982Z,7.90
2018-10-09T11:59:02.902Z,6.27
2018-10-09T12:01:32.400Z,3.45
2018-10-09T12:04:01.474Z,5.60
2018-10-09T12:06:31.258Z,4.73
2018-10-09T12:09:00.802Z,3.58
2018-10-09T12:11:29.686Z,7.72
2018-10-09T12:13:58.582Z,10.93
2018-10-09T12:16:27.533Z,13.20
2018-10-09T12:18:56.204Z,4.65
2018-10-09T12:21:24.976Z,5.87
2018-10-09T12:23:53.772Z,6.67
2018-10-09T12:26:22.934Z,5.40
2018-10-09T12:28:52.008Z,7.65
2018-10-09T12:31:21.351Z,8.63
2018-10-09T12:33:50.217Z,3.67
2018-10-09T12:36:19.038Z,10.30
2018-10-09T12:38:48.416Z,6.73
2018-10-09T12:41:17.405Z,12.60
2018-10-09T12:43:46.547Z,7.28
2018-10-09T12:46:15.883Z,9.90
2018-10-09T12:48:44.552Z,5.45
2018-10-09T12:51:13.183Z,13.65
2018-10-09T12:53:42.122Z,7.35
2018-10-09T12:56:10.954Z,6.83
2018-10-09T12:58:40.005Z,11.80
2018-10-09T13:01:09.271Z,7.30
2018-10-09T13:03:38.138Z,8.03
2018-10-09T13:06:07.081Z,3.55
2018-10-09T13:08:36.299Z,5.65
2018-10-09T13:11:05.136Z,2.83
2018-10-09T13:13:34.031Z,4.47
2018-10-09T13:16:02.815Z,12.20
2018-10-09T13:18:31.863Z,8.83
2018-10-09T13:21:00.979Z,5.05
2018-10-09T13:23:29.702Z,3.62
2018-10-09T13:25:58.839Z,3.83
2018-10-09T13:28:27.622Z,7.08
2018-10-09T13:30:56.497Z,13.83
2018-10-09T13:33:25.210Z,5.28
2018-10-09T13:35:54.059Z,9.58
2018-10-09T13:38:22.944Z,14.35
2018-10-09T13:40:51.839Z,5.60
2018-10-09T13:43:20.607Z,9.03
2018-10-09T13:45:49.626Z,9.18
2018-10-09T13:48:18.327Z,13.10
2018-10-09T13:50:47.118Z,10.13
2018-10-09T13:53:15.867Z,8.53
2018-10-09T13:55:44.564Z,6.70
2018-10-09T13:58:13.508Z,4.75
2018-10-09T14:00:42.326Z,10.23
2018-10-09T14:03:11.639Z,3.47
2018-10-09T14:05:40.552Z,11.10
2018-10-09T14:08:09.389Z,8.18
2018-10-09T14:10:38.268Z,2.80
2018-10-09T14:13:07.318Z,4.65
2018-10-09T14:15:36.318Z,15.48
2018-10-09T14:18:05.018Z,14.95
2018-10-09T14:20:33.711Z,6.50
2018-10-09T14:23:02.446Z,11.33
2018-10-09T14:25:31.310Z,10.15
2018-10-09T14:28:00.149Z,6.58
2018-10-09T14:30:29.376Z,6.97
2018-10-09T14:32:58.382Z,5.65
2018-10-09T14:35:27.600Z,11.97
2018-10-09T14:37:56.430Z,7.55
2018-10-09T14:40:25.487Z,7.92
2018-10-09T14:42:54.422Z,6.25
2018-10-09T14:45:23.094Z,3.67
2018-10-09T14:47:51.894Z,7.90
2018-10-09T14:50:20.620Z,4.40
2018-10-09T14:52:49.275Z,3.67
2018-10-09T14:55:18.276Z,6.17
2018-10-09T14:57:47.372Z,10.95
2018-10-09T15:00:16.388Z,12.15
2018-10-09T15:02:45.135Z,9.18
2018-10-09T15:05:14.036Z,9.35
2018-10-09T15:07:42.763Z,10.32
2018-10-09T15:10:11.406Z,6.28
2018-10-09T15:12:40.325Z,5.70
2018-10-09T15:15:09.036Z,17.25
2018-10-09T15:17:37.820Z,5.78
2018-10-09T15:20:07.727Z,9.78
2018-10-09T15:22:36.495Z,14.25
2018-10-09T15:25:05.426Z,10.27
2018-10-09T15:27:39.603Z,7.80
2018-10-09T15:30:08.559Z,11.37
2018-10-09T15:32:37.630Z,6.37
2018-10-09T15:35:06.437Z,5.50
2018-10-09T15:37:35.605Z,9.83
2018-10-09T15:40:04.510Z,14.00
2018-10-09T15:42:33.473Z,6.67
2018-10-09T15:45:02.711Z,11.87
2018-10-09T15:47:31.378Z,9.70
2018-10-09T15:50:00.071Z,4.80
2018-10-09T15:52:29.014Z,11.03
2018-10-09T15:54:57.875Z,10.67
2018-10-09T15:57:26.585Z,8.10
2018-10-09T15:59:55.983Z,14.23
2018-10-09T16:02:24.879Z,8.10
2018-10-09T16:04:53.484Z,5.70
2018-10-09T16:07:22.572Z,8.90
2018-10-09T16:09:51.583Z,8.77
2018-10-09T16:12:20.314Z,10.27
2018-10-09T16:14:49.737Z,13.40
2018-10-09T16:17:18.391Z,14.93
2018-10-09T16:19:47.172Z,13.60
2018-10-09T16:22:16.175Z,11.37
2018-10-09T16:24:44.808Z,12.03
2018-10-09T16:27:13.510Z,10.70
2018-10-09T16:29:42.675Z,11.53
2018-10-09T16:32:11.652Z,10.93
2018-10-09T16:34:40.396Z,15.13
2018-10-09T16:37:09.666Z,22.43
2018-10-09T16:39:38.386Z,25.13
2018-10-09T16:42:07.409Z,20.00
2018-10-09T16:44:36.714Z,26.00
2018-10-09T16:47:06.556Z,20.03
2018-10-09T16:49:37.091Z,23.20
2018-10-09T16:52:05.825Z,22.17
2018-10-09T16:54:35.020Z,35.07
2018-10-09T16:57:03.964Z,28.07
2018-10-09T16:59:32.652Z,22.17
2018-10-09T17:02:01.574Z,13.63
2018-10-09T17:04:30.792Z,12.43
2018-10-09T17:06:59.971Z,17.00
2018-10-09T17:09:28.762Z,16.43
2018-10-09T17:11:57.904Z,19.20
2018-10-09T17:14:27.075Z,19.03
2018-10-09T17:16:55.894Z,21.67
2018-10-09T17:19:24.556Z,24.17
2018-10-09T17:21:53.350Z,25.80
2018-10-09T17:24:22.138Z,15.80
2018-10-09T17:26:51.299Z,17.57
2018-10-09T17:29:20.408Z,25.57
2018-10-09T17:31:49.307Z,15.47
2018-10-09T17:34:18.320Z,17.90
2018-10-09T17:36:47.419Z,23.43
2018-10-09T17:39:16.427Z,27.00
2018-10-09T17:41:45.226Z,22.80
2018-10-09T17:44:14.498Z,18.60
2018-10-09T17:46:43.244Z,19.00
2018-10-09T17:49:12.131Z,21.30
2018-10-09T17:51:41.063Z,29.13
2018-10-09T17:54:10.041Z,28.17
2018-10-09T17:56:39.592Z,26.80
2018-10-09T17:59:08.867Z,23.93
2018-10-09T18:01:37.950Z,29.00
2018-10-09T18:04:06.988Z,21.67
2018-10-09T18:06:36.026Z,28.77
2018-10-09T18:09:07.527Z,28.10
2018-10-09T18:11:36.499Z,30.90
2018-10-09T18:14:05.583Z,32.30
2018-10-09T18:16:34.552Z,41.83
2018-10-09T18:19:03.383Z,39.27
2018-10-09T18:21:32.667Z,49.77
2018-10-09T18:24:01.765Z,48.20
2018-10-09T18:26:30.557Z,50.07
2018-10-09T18:28:59.199Z,55.07
2018-10-09T18:31:28.995Z,43.27
2018-10-09T18:33:58.601Z,46.97
2018-10-09T18:36:28.048Z,33.70
2018-10-09T18:38:57.194Z,32.67
2018-10-09T18:41:26.310Z,28.23
2018-10-09T18:43:55.296Z,32.47
2018-10-09T18:46:24.251Z,30.20
2018-10-09T18:48:53.065Z,30.57
2018-10-09T18:51:21.929Z,30.00
2018-10-09T18:53:51.034Z,21.03
2018-10-09T18:56:20.191Z,27.03
2018-10-09T18:58:48.854Z,28.43
2018-10-09T19:01:18.122Z,27.43
2018-10-09T19:03:47.182Z,29.90
2018-10-09T19:06:16.106Z,26.83
2018-10-09T19:08:45.414Z,22.00
2018-10-09T19:11:14.181Z,30.60
2018-10-09T19:13:42.987Z,28.90
2018-10-09T19:16:12.133Z,32.53
2018-10-09T19:18:41.184Z,27.43
2018-10-09T19:21:10.375Z,38.63
2018-10-09T19:23:39.735Z,30.17
2018-10-09T19:26:08.816Z,35.60
2018-10-09T19:28:37.778Z,29.30
2018-10-09T19:31:07.081Z,31.23
2018-10-09T19:33:36.023Z,26.93
2018-10-09T19:36:04.972Z,31.93
2018-10-09T19:38:34.239Z,32.90
2018-10-09T19:41:03.106Z,32.43
2018-10-09T19:43:31.928Z,28.53
2018-10-09T19:46:00.676Z,33.23
2018-10-09T19:48:29.435Z,30.33
2018-10-09T19:50:58.220Z,45.37
2018-10-09T19:53:26.763Z,42.00
2018-10-09T19:55:55.666Z,37.13
2018-10-09T19:58:24.391Z,37.70
2018-10-09T20:00:53.391Z,39.73
2018-10-09T20:03:22.075Z,35.57
2018-10-09T20:05:50.663Z,51.23
2018-10-09T20:08:19.952Z,52.23
2018-10-09T20:10:49.227Z,43.10
2018-10-09T20:13:18.562Z,46.17
2018-10-09T20:15:47.847Z,55.30
2018-10-09T20:18:16.492Z,42.13
2018-10-09T20:20:45.279Z,37.90
2018-10-09T20:23:14.321Z,44.23
2018-10-09T20:25:43.366Z,39.27
2018-10-09T20:28:12.153Z,34.63
2018-10-09T20:30:41.151Z,44.37
2018-10-09T20:33:10.580Z,36.13
2018-10-09T20:35:39.670Z,27.90
2018-10-09T20:38:08.788Z,29.23
2018-10-09T20:40:37.523Z,33.90
2018-10-09T20:43:06.655Z,25.47
2018-10-09T20:45:35.490Z,27.97
2018-10-09T20:48:04.199Z,26.67
2018-10-09T20:50:32.801Z,28.37
2018-10-09T20:53:01.620Z,29.57
2018-10-09T20:55:30.816Z,29.40
2018-10-09T20:57:59.652Z,26.57
2018-10-09T21:00:28.459Z,27.90
2018-10-09T21:02:57.653Z,23.40
2018-10-09T21:05:26.961Z,21.20
2018-10-09T21:07:56.182Z,21.43
2018-10-09T21:10:25.047Z,21.50
2018-10-09T21:12:54.170Z,23.13
2018-10-09T21:15:22.842Z,26.23
2018-10-09T21:17:51.631Z,24.83
2018-10-09T21:20:20.419Z,19.77
2018-10-09T21:22:49.129Z,28.97
2018-10-09T21:25:17.790Z,23.73
2018-10-09T21:27:46.852Z,27.33
2018-10-09T21:30:15.601Z,23.17
2018-10-09T21:32:44.284Z,23.53
2018-10-09T21:35:13.299Z,26.57
2018-10-09T21:37:41.982Z,20.87
2018-10-09T21:40:10.682Z,18.00
2018-10-09T21:42:39.562Z,21.47
2018-10-09T21:45:08.379Z,21.20
2018-10-09T21:47:37.027Z,19.97
2018-10-09T21:50:05.713Z,28.47
2018-10-09T21:52:34.433Z,24.50
2018-10-09T21:55:03.142Z,21.37
2018-10-09T21:57:32.199Z,27.67
2018-10-09T22:00:00.889Z,23.73
2018-10-09T22:02:29.469Z,21.43
2018-10-09T22:04:58.558Z,19.87
2018-10-09T22:07:27.231Z,24.23
2018-10-09T22:09:56.093Z,23.93
2018-10-09T22:12:24.886Z,26.37
2018-10-09T22:14:53.458Z,21.50
2018-10-09T22:17:22.060Z,20.17
2018-10-09T22:19:50.869Z,20.30
2018-10-09T22:22:19.557Z,19.57
2018-10-09T22:24:48.354Z,20.70
2018-10-09T22:27:17.004Z,21.40
2018-10-09T22:29:45.656Z,19.20
2018-10-09T22:32:14.427Z,21.20
2018-10-09T22:34:43.423Z,22.00
2018-10-09T22:37:12.364Z,17.57
2018-10-09T22:39:41.291Z,25.17
2018-10-09T22:42:10.395Z,19.97
2018-10-09T22:44:39.114Z,26.07
2018-10-09T22:47:08.057Z,21.83
2018-10-09T22:49:37.081Z,30.67
2018-10-09T22:52:05.975Z,23.03
2018-10-09T22:54:34.740Z,24.40
2018-10-09T22:57:03.707Z,20.37
2018-10-09T22:59:32.414Z,21.63
2018-10-09T23:02:01.436Z,23.90
2018-10-09T23:04:30.305Z,24.50
2018-10-09T23:06:59.194Z,19.07
2018-10-09T23:09:28.130Z,20.83
2018-10-09T23:11:57.255Z,18.67
2018-10-09T23:14:25.968Z,18.23
2018-10-09T23:16:54.763Z,18.63
2018-10-09T23:19:23.380Z,23.03
2018-10-09T23:21:52.241Z,21.23
2018-10-09T23:24:21.329Z,18.67
2018-10-09T23:26:50.329Z,15.33
2018-10-09T23:29:19.228Z,20.90
2018-10-09T23:31:48.330Z,17.33
2018-10-09T23:34:17.044Z,18.77
2018-10-09T23:36:45.896Z,16.17
2018-10-09T23:39:15.273Z,19.90
2018-10-09T23:41:44.365Z,26.67
2018-10-09T23:44:13.362Z,18.53
2018-10-09T23:46:42.244Z,20.27
2018-10-09T23:49:10.916Z,18.67
2018-10-09T23:51:39.654Z,19.60
2018-10-09T23:54:08.566Z,19.50
2018-10-09T23:56:37.520Z,16.37
2018-10-09T23:59:06.944Z,17.33
